Airfield :
LOGIN :

Register | Disclaimer

   EN    FR    IT 

 










Legend :    VFR   Marginal VFR   IFR   Intensive IFR   Very Intensive IFR
Visi :
Ceiling :
>= 8 km
>= 3000ft
5 to 8 km
1000 to 3000 ft
1500m to 5 km
500 to 1000 ft
800 to 1500m
200 to 500 ft
< 800m
< 200 ft
Symbols :   Thunderstorms  Fog  Heavy snow  Heavy precipitations  Wind > 20 kt
SIGMETs :     Misc.  Thunderstorms  Icing  Turbulence  Mountain Waves  Volcanic Ashes







- Airport Elevation : 1299 ft


EDTY - Adolf Würth

CURRENT METAR :
  • 181720Z 06003KT CAVOK 25/16 Q1014

EXPIRED METARs :
  • 181650Z 04005KT CAVOK 26/16 Q1014
  • 181620Z 03003KT CAVOK 27/16 Q1014
  • 181550Z 04004KT 360V080 CAVOK 26/15 Q1014
  • 181520Z 06005KT 030V120 CAVOK 27/14 Q1014
  • 181450Z 07004KT 350V130 CAVOK 27/16 Q1014

TAF TAF EDTY
Valid from the 18 at 18:00 until the 19 at 03:00 UTC


181700Z 1818/1903 VRB03KT CAVOK
No reported NOTAMs for that airfield.



MET'MAP, your aeronautical weather chart ! - Copyright ORBIFLY December 2007 - Disclaimer

ORBIFLY MET'MAP TEAM :

Programming & Development : Alexandra Zaïnal
Concept & Development : Baudouin d'Aumeries
Co-Development & Prog : Marc-Olivier Méhu
Technical & hardware support : Manuel Goepfert

Contact : metmap@orbifly.com




SOURCES & CREDITS :

   NOAA